Time;durP1;ratioP1;P1;durP2;ratioP2;P2;SDS_P1;SDS_P2;PMS_P1;PMS_P2;Temp;Humidity;BMP_temperature;BMP_pressure;BME280_temperature;BME280_humidity;BME280_pressure;Samples;Min_cycle;Max_cycle;Signal;HPM_P1;HPM_P2
2023/03/29 00:02:28;;;;;;;0.40;0.40;;;;;;;3.62;46.76;97073.81;5007731;28;20525;-60
2023/03/29 00:04:57;;;;;;;0.40;0.40;;;;;;;3.56;47.32;97012.13;5007256;28;20058;-59
2023/03/29 00:07:24;;;;;;;0.40;0.40;;;;;;;4.08;46.67;97067.56;5006374;28;20567;-58
2023/03/29 00:09:51;;;;;;;0.40;0.40;;;;;;;3.97;45.85;97074.53;5007292;28;20054;-61
2023/03/29 00:12:18;;;;;;;0.40;0.40;;;;;;;4.11;46.03;97075.94;5008029;28;20046;-58
2023/03/29 00:14:45;;;;;;;0.40;0.40;;;;;;;3.59;45.86;97014.22;5007574;28;20053;-60
2023/03/29 00:17:12;;;;;;;0.40;0.40;;;;;;;3.20;45.97;96995.31;5006126;28;20112;-60
2023/03/29 00:19:39;;;;;;;0.40;0.40;;;;;;;3.70;46.40;97070.25;5007282;28;20543;-58
2023/03/29 00:22:05;;;;;;;0.40;0.40;;;;;;;3.18;46.59;96997.56;5007547;28;20120;-60
2023/03/29 00:24:32;;;;;;;0.40;0.40;;;;;;;3.56;46.92;97080.59;5006763;28;20068;-61
2023/03/29 00:26:59;;;;;;;0.40;0.40;;;;;;;3.33;46.92;97051.81;5007724;28;20116;-61
2023/03/29 00:29:26;;;;;;;0.32;0.32;;;;;;;3.08;47.07;96997.91;5005807;28;20058;-60
2023/03/29 00:31:54;;;;;;;0.40;0.40;;;;;;;3.47;47.40;97044.22;5007298;28;20136;-61
2023/03/29 00:34:29;;;;;;;0.40;0.40;;;;;;;3.42;47.77;97063.53;5007472;28;20522;-61
2023/03/29 00:36:57;;;;;;;0.40;0.40;;;;;;;3.23;48.12;97013.81;5007512;28;20069;-60
2023/03/29 00:39:25;;;;;;;0.45;0.45;;;;;;;3.46;48.20;97064.53;5007086;28;20444;-61
2023/03/29 00:41:52;;;;;;;0.40;0.40;;;;;;;3.67;47.75;97092.00;5005787;28;20062;-61
2023/03/29 00:44:55;;;;;;;0.40;0.40;;;;;;;3.69;48.35;97073.31;5006911;28;20089;-60
2023/03/29 00:47:36;;;;;;;0.40;0.40;;;;;;;3.71;47.36;97077.34;4997342;28;20548;-60
2023/03/29 00:50:28;;;;;;;0.40;0.40;;;;;;;3.70;47.41;97080.44;5006354;28;20136;-58
2023/03/29 00:53:25;;;;;;;0.40;0.40;;;;;;;3.67;47.72;97087.34;4986006;28;20053;-59
2023/03/29 00:55:52;;;;;;;0.40;0.40;;;;;;;3.65;48.43;97067.69;4987126;28;20062;-58
2023/03/29 00:58:27;;;;;;;0.40;0.40;;;;;;;3.26;47.82;97021.38;4987383;28;20434;-59
2023/03/29 01:01:00;;;;;;;0.40;0.40;;;;;;;3.42;48.26;97071.75;4986911;28;20050;-58
2023/03/29 01:03:35;;;;;;;0.40;0.40;;;;;;;3.44;48.20;97069.50;4987038;28;20548;-60
2023/03/29 01:06:06;;;;;;;0.40;0.40;;;;;;;3.34;47.70;97072.56;4986486;28;20050;-61
2023/03/29 01:08:46;;;;;;;0.40;0.40;;;;;;;3.44;47.79;97065.94;4987304;28;20116;-58
2023/03/29 01:11:21;;;;;;;0.40;0.40;;;;;;;3.40;47.98;97054.84;5018442;28;20050;-60
2023/03/29 01:14:10;;;;;;;0.40;0.40;;;;;;;3.28;47.51;97065.66;4986965;28;20679;-60
2023/03/29 01:16:37;;;;;;;0.40;0.40;;;;;;;3.27;47.54;97083.22;4987010;28;20497;-60
2023/03/29 01:19:12;;;;;;;0.40;0.40;;;;;;;3.25;47.47;97069.03;4986835;28;20046;-58
2023/03/29 01:21:50;;;;;;;0.40;0.40;;;;;;;3.13;48.22;97060.66;4986841;28;20054;-59
2023/03/29 01:24:49;;;;;;;0.40;0.40;;;;;;;2.59;48.74;97018.31;4987154;28;20073;-57
2023/03/29 01:27:44;;;;;;;0.40;0.40;;;;;;;2.89;48.45;97068.53;4987160;28;20129;-59
2023/03/29 01:30:21;;;;;;;0.40;0.40;;;;;;;2.87;47.36;97084.47;4986130;28;20050;-59
2023/03/29 01:33:32;;;;;;;0.40;0.40;;;;;;;2.91;47.20;97079.94;4986751;28;20050;-57
2023/03/29 01:36:45;;;;;;;0.40;0.40;;;;;;;2.86;47.19;97093.81;4986625;28;20050;-57
2023/03/29 01:39:12;;;;;;;0.40;0.40;;;;;;;2.90;47.49;97100.22;4985038;28;20089;-60
2023/03/29 01:41:51;;;;;;;0.32;0.32;;;;;;;2.97;47.82;97095.09;4986392;28;20153;-59
2023/03/29 01:44:26;;;;;;;0.40;0.40;;;;;;;2.96;47.98;97098.94;4986675;28;20332;-59
2023/03/29 01:47:10;;;;;;;0.40;0.40;;;;;;;2.91;48.05;97119.06;4986098;28;20153;-57
2023/03/29 01:49:53;;;;;;;0.40;0.40;;;;;;;2.88;47.38;97124.34;4986364;28;20510;-59
2023/03/29 01:52:33;;;;;;;;;;;;;;;3.05;46.61;97138.09;5000996;28;20061;-59
2023/03/29 01:55:12;;;;;;;0.40;0.40;;;;;;;2.92;47.76;97147.22;5005593;28;20019;-60
2023/03/29 01:57:42;;;;;;;0.40;0.40;;;;;;;2.91;48.31;97140.94;5006316;28;20056;-59
2023/03/29 02:00:17;;;;;;;0.40;0.40;;;;;;;2.88;47.72;97157.19;5005296;28;20045;-60
2023/03/29 02:02:46;;;;;;;0.40;0.40;;;;;;;2.68;47.90;97141.38;5005969;28;20057;-57
2023/03/29 02:05:15;;;;;;;0.40;0.40;;;;;;;2.76;48.59;97171.50;5004898;28;20058;-58
2023/03/29 02:07:44;;;;;;;0.40;0.40;;;;;;;2.76;49.27;97159.72;5005536;28;20418;-59
2023/03/29 02:10:13;;;;;;;0.40;0.40;;;;;;;2.23;49.35;97075.13;5003745;28;20081;-59
2023/03/29 02:12:40;;;;;;;0.40;0.40;;;;;;;2.71;47.29;97173.56;5005569;28;20064;-59
2023/03/29 02:15:12;;;;;;;0.40;0.40;;;;;;;2.80;46.63;97166.16;5005042;28;20136;-58
2023/03/29 02:17:39;;;;;;;0.40;0.40;;;;;;;2.73;46.36;97188.53;5005787;28;20049;-59
2023/03/29 02:20:21;;;;;;;0.40;0.40;;;;;;;2.73;47.35;97182.25;5004059;28;20057;-59
2023/03/29 02:22:53;;;;;;;0.40;0.40;;;;;;;2.82;47.18;97181.16;5005685;28;20056;-59
2023/03/29 02:25:21;;;;;;;0.40;0.40;;;;;;;2.82;47.24;97178.41;5005114;28;20120;-60
2023/03/29 02:27:48;;;;;;;0.40;0.40;;;;;;;2.71;47.01;97179.00;5005588;28;20056;-59
2023/03/29 02:30:17;;;;;;;0.40;0.40;;;;;;;2.46;45.72;97160.59;5004792;28;20061;-57
2023/03/29 02:33:04;;;;;;;0.40;0.40;;;;;;;2.58;45.58;97164.34;5005168;28;20101;-57
2023/03/29 02:35:35;;;;;;;0.40;0.40;;;;;;;2.71;45.92;97200.91;5004494;28;20125;-60
2023/03/29 02:38:06;;;;;;;0.40;0.40;;;;;;;2.74;45.90;97208.47;5005531;28;20053;-58
2023/03/29 02:40:36;;;;;;;0.30;0.30;;;;;;;2.75;45.10;97204.63;5004692;28;20477;-61
2023/03/29 02:43:06;;;;;;;0.40;0.40;;;;;;;2.67;45.04;97200.72;5036771;28;20144;-58
2023/03/29 02:45:35;;;;;;;0.40;0.40;;;;;;;2.51;45.20;97198.72;5004588;28;20608;-58
2023/03/29 02:48:06;;;;;;;0.40;0.40;;;;;;;1.80;44.44;97070.63;5004780;28;20144;-57
2023/03/29 02:50:38;;;;;;;0.30;0.30;;;;;;;2.21;44.13;97115.66;5004193;28;20053;-58
2023/03/29 02:53:12;;;;;;;0.30;0.30;;;;;;;2.67;43.98;97178.06;5004470;28;20069;-60
2023/03/29 02:55:38;;;;;;;0.40;0.40;;;;;;;2.61;43.94;97176.56;5004344;28;20119;-58
2023/03/29 02:58:08;;;;;;;0.40;0.40;;;;;;;2.57;45.29;97178.31;5005061;28;20050;-60
2023/03/29 03:00:44;;;;;;;0.40;0.40;;;;;;;2.57;46.12;97183.78;5004859;28;20065;-60
2023/03/29 03:03:14;;;;;;;0.40;0.40;;;;;;;2.58;45.82;97171.72;5004937;28;20085;-57
2023/03/29 03:05:41;;;;;;;0.40;0.40;;;;;;;2.11;45.45;97107.72;5003518;28;20437;-59
2023/03/29 03:08:08;;;;;;;0.40;0.40;;;;;;;2.00;46.20;97080.97;5004800;28;20537;-60
2023/03/29 03:10:36;;;;;;;0.40;0.40;;;;;;;2.45;45.62;97175.38;5004343;28;20489;-60
2023/03/29 03:13:02;;;;;;;0.40;0.40;;;;;;;2.07;45.55;97108.66;5004771;28;20053;-58
2023/03/29 03:15:30;;;;;;;0.40;0.40;;;;;;;2.53;46.10;97193.75;5004782;28;20049;-59
2023/03/29 03:17:56;;;;;;;0.40;0.40;;;;;;;1.87;46.58;97103.72;5003800;28;20054;-58
2023/03/29 03:20:23;;;;;;;0.40;0.40;;;;;;;2.12;46.24;97116.72;5002826;28;20180;-60
2023/03/29 03:22:49;;;;;;;0.40;0.40;;;;;;;2.49;46.43;97192.75;5004491;28;20085;-58
2023/03/29 03:25:19;;;;;;;0.40;0.40;;;;;;;2.46;45.95;97204.31;5004433;28;20108;-60
2023/03/29 03:27:47;;;;;;;0.40;0.40;;;;;;;2.52;46.20;97208.53;5004041;28;20085;-60
2023/03/29 03:30:15;;;;;;;0.30;0.30;;;;;;;2.48;46.83;97197.41;5002994;28;20054;-57
2023/03/29 03:32:43;;;;;;;0.30;0.30;;;;;;;2.40;46.43;97211.06;5004659;28;20061;-60
2023/03/29 03:35:10;;;;;;;0.40;0.40;;;;;;;2.37;46.46;97217.94;5004384;28;20160;-57
2023/03/29 03:37:38;;;;;;;0.40;0.40;;;;;;;1.86;46.71;97151.28;5004486;28;20124;-61
2023/03/29 03:40:10;;;;;;;0.32;0.32;;;;;;;2.31;47.05;97226.59;5003850;28;20564;-59
2023/03/29 03:42:40;;;;;;;0.40;0.40;;;;;;;1.92;46.30;97169.13;5004030;28;20132;-58
2023/03/29 03:45:09;;;;;;;0.32;0.32;;;;;;;2.30;46.66;97238.63;5004099;28;20492;-58
2023/03/29 03:47:36;;;;;;;0.40;0.40;;;;;;;2.30;46.86;97249.56;5004207;28;20061;-60
2023/03/29 03:50:05;;;;;;;0.40;0.40;;;;;;;2.15;47.29;97225.38;5002209;28;20081;-58
2023/03/29 03:52:31;;;;;;;0.40;0.40;;;;;;;2.12;47.20;97275.97;5003797;28;20765;-59
2023/03/29 03:54:58;;;;;;;0.40;0.40;;;;;;;1.67;47.52;97169.78;5003956;28;20058;-58
2023/03/29 03:57:25;;;;;;;0.35;0.35;;;;;;;2.17;47.57;97250.44;5004207;28;20584;-59
2023/03/29 03:59:51;;;;;;;0.40;0.40;;;;;;;1.27;47.23;97128.69;5003923;28;20060;-57
2023/03/29 04:02:19;;;;;;;0.30;0.30;;;;;;;2.12;47.29;97250.59;5003932;28;20057;-60
2023/03/29 04:04:46;;;;;;;0.40;0.40;;;;;;;2.11;46.72;97262.63;5003793;28;20054;-59
2023/03/29 04:07:13;;;;;;;0.40;0.40;;;;;;;2.13;46.58;97260.41;5004149;28;20076;-59
2023/03/29 04:09:39;;;;;;;0.30;0.30;;;;;;;2.08;47.16;97282.38;5003929;28;20049;-61
2023/03/29 04:12:06;;;;;;;0.30;0.30;;;;;;;1.16;46.76;97105.50;5034951;28;20073;-59
2023/03/29 04:14:33;;;;;;;0.30;0.30;;;;;;;2.12;46.97;97256.06;5003915;28;20058;-60
2023/03/29 04:17:00;;;;;;;0.32;0.32;;;;;;;2.08;46.29;97280.44;5006248;28;20045;-60
2023/03/29 04:19:27;;;;;;;0.30;0.30;;;;;;;2.14;45.87;97249.16;5006308;28;20136;-58
2023/03/29 04:21:53;;;;;;;0.40;0.40;;;;;;;2.09;46.19;97235.63;5006238;28;20103;-58
2023/03/29 04:24:22;;;;;;;0.40;0.40;;;;;;;2.15;46.28;97277.28;5006015;28;20160;-60
2023/03/29 04:26:49;;;;;;;0.30;0.30;;;;;;;2.15;46.26;97252.72;5006292;28;20050;-60
2023/03/29 04:29:15;;;;;;;0.30;0.30;;;;;;;2.20;46.94;97249.81;5006078;28;20053;-60
2023/03/29 04:31:42;;;;;;;0.38;0.38;;;;;;;2.22;46.86;97253.06;5006887;28;20104;-60
2023/03/29 04:34:09;;;;;;;0.38;0.38;;;;;;;1.88;46.92;97181.81;5022375;28;20050;-62
2023/03/29 04:36:36;;;;;;;0.40;0.40;;;;;;;2.27;46.82;97240.09;5007561;28;20510;-57
2023/03/29 04:39:03;;;;;;;0.30;0.30;;;;;;;2.35;46.79;97236.59;5007099;28;20127;-59
2023/03/29 04:41:31;;;;;;;0.32;0.32;;;;;;;2.38;46.07;97262.47;5006760;28;20144;-58
2023/03/29 04:43:58;;;;;;;0.35;0.35;;;;;;;2.43;46.51;97229.56;5006983;28;20054;-57
2023/03/29 04:46:25;;;;;;;0.40;0.40;;;;;;;2.52;46.92;97263.22;5038396;28;20045;-57
2023/03/29 04:48:52;;;;;;;0.40;0.40;;;;;;;2.15;45.62;97187.91;5006978;28;20061;-57
2023/03/29 04:51:21;;;;;;;0.38;0.38;;;;;;;2.66;46.98;97236.56;5006948;28;20140;-59
2023/03/29 04:53:49;;;;;;;0.30;0.30;;;;;;;2.61;47.70;97239.44;5006750;28;20050;-59
2023/03/29 04:56:16;;;;;;;0.40;0.40;;;;;;;2.66;47.10;97266.66;5006881;28;20052;-58
2023/03/29 04:58:43;;;;;;;0.38;0.38;;;;;;;2.67;47.31;97249.16;5006676;28;20061;-60
2023/03/29 05:01:10;;;;;;;0.40;0.40;;;;;;;2.67;47.75;97262.81;4971206;28;20422;-57
2023/03/29 05:03:37;;;;;;;0.40;0.40;;;;;;;2.75;48.04;97270.25;4986958;28;20050;-60
2023/03/29 05:06:10;;;;;;;0.40;0.40;;;;;;;1.83;47.52;97108.22;4986757;28;20116;-58
2023/03/29 05:08:38;;;;;;;0.40;0.40;;;;;;;2.75;47.74;97245.66;4986940;28;20185;-60
2023/03/29 05:11:07;;;;;;;0.40;0.40;;;;;;;2.96;46.97;97274.03;4985588;28;20365;-58
2023/03/29 05:13:34;;;;;;;0.40;0.40;;;;;;;3.10;46.46;97277.47;4986848;28;20093;-59
2023/03/29 05:16:01;;;;;;;0.40;0.40;;;;;;;3.01;46.48;97261.03;4985246;28;20481;-57
2023/03/29 05:18:28;;;;;;;0.40;0.40;;;;;;;3.19;46.08;97304.88;4986870;28;20051;-60
2023/03/29 05:20:56;;;;;;;0.40;0.40;;;;;;;3.26;44.81;97272.38;4986987;28;20509;-57
2023/03/29 05:23:23;;;;;;;0.40;0.40;;;;;;;2.83;45.14;97231.16;4986364;28;20086;-59
2023/03/29 05:25:52;;;;;;;0.40;0.40;;;;;;;3.31;45.62;97281.25;4984941;28;20510;-57
2023/03/29 05:28:19;;;;;;;0.40;0.40;;;;;;;3.44;45.62;97306.88;4984864;28;20631;-59
2023/03/29 05:30:46;;;;;;;0.40;0.40;;;;;;;3.44;45.22;97384.38;4985036;28;20097;-57
2023/03/29 05:33:13;;;;;;;0.40;0.40;;;;;;;1.67;44.83;97052.38;4986412;28;20066;-59
2023/03/29 05:35:40;;;;;;;0.40;0.40;;;;;;;1.19;44.39;96945.88;4986199;28;20113;-60
2023/03/29 05:38:06;;;;;;;0.40;0.40;;;;;;;3.48;44.61;97278.53;4986827;28;20061;-61
2023/03/29 05:40:34;;;;;;;0.40;0.40;;;;;;;3.21;44.46;97221.31;4985386;28;20050;-58
2023/03/29 05:43:01;;;;;;;0.40;0.40;;;;;;;2.89;43.40;97229.94;4986947;28;20058;-58
2023/03/29 05:45:28;;;;;;;0.40;0.40;;;;;;;3.80;43.11;97321.94;4986260;28;20077;-61
2023/03/29 05:47:56;;;;;;;0.40;0.40;;;;;;;3.69;43.34;97309.69;4986507;28;20097;-58
2023/03/29 05:50:23;;;;;;;0.40;0.40;;;;;;;3.86;43.75;97309.72;4986093;28;20058;-59
2023/03/29 05:52:50;;;;;;;0.40;0.40;;;;;;;3.62;43.12;97303.88;4986445;28;20081;-60
2023/03/29 05:55:17;;;;;;;0.40;0.40;;;;;;;3.74;42.68;97317.75;4986064;28;20116;-60
2023/03/29 05:57:43;;;;;;;0.40;0.40;;;;;;;3.65;42.10;97291.47;4986256;28;20054;-59
2023/03/29 06:00:18;;;;;;;0.40;0.40;;;;;;;3.67;43.48;97322.88;4985807;28;20042;-60
2023/03/29 06:02:45;;;;;;;0.40;0.40;;;;;;;3.86;42.44;97326.16;4984559;28;20054;-59
2023/03/29 06:05:12;;;;;;;0.40;0.40;;;;;;;3.97;42.17;97304.72;4985489;28;20596;-57
2023/03/29 06:07:39;;;;;;;0.40;0.40;;;;;;;2.97;40.96;97188.91;4986267;28;20133;-57
2023/03/29 06:10:08;;;;;;;0.40;0.40;;;;;;;1.20;41.23;96882.81;4981720;28;20112;-58
2023/03/29 06:12:35;;;;;;;0.40;0.40;;;;;;;3.82;41.40;97319.72;4986043;28;20046;-59
2023/03/29 06:15:03;;;;;;;0.43;0.43;;;;;;;2.82;41.01;97150.25;4985766;28;20082;-59
2023/03/29 06:17:32;;;;;;;0.40;0.40;;;;;;;3.31;39.89;97226.50;4982768;28;20112;-59
2023/03/29 06:20:00;;;;;;;0.43;0.43;;;;;;;3.91;39.81;97312.28;4984146;28;20085;-59
2023/03/29 06:22:27;;;;;;;0.40;0.40;;;;;;;4.18;40.24;97339.41;4978347;28;20371;-58
2023/03/29 06:24:53;;;;;;;0.40;0.40;;;;;;;4.26;40.70;97362.47;4965808;28;20506;-58
2023/03/29 06:27:20;;;;;;;0.40;0.40;;;;;;;2.95;39.97;97141.13;4965471;28;20473;-59
2023/03/29 06:29:47;;;;;;;0.40;0.40;;;;;;;4.17;39.20;97370.66;4965283;28;20117;-56
2023/03/29 06:32:14;;;;;;;0.40;0.40;;;;;;;4.11;38.79;97377.44;4965643;28;20055;-59
2023/03/29 06:34:40;;;;;;;0.40;0.40;;;;;;;2.89;38.64;97235.41;4980400;28;20105;-57
2023/03/29 06:37:07;;;;;;;0.50;0.50;;;;;;;4.04;39.26;97330.53;4965209;28;20141;-58
2023/03/29 06:39:33;;;;;;;0.40;0.40;;;;;;;3.91;39.02;97336.97;4963905;28;20058;-59
2023/03/29 06:42:00;;;;;;;0.40;0.40;;;;;;;4.27;39.17;97359.41;4982492;28;20493;-59
2023/03/29 06:44:42;;;;;;;0.40;0.40;;;;;;;4.34;39.20;97370.69;4983642;28;20058;-59
2023/03/29 06:47:08;;;;;;;0.50;0.50;;;;;;;4.47;38.86;97390.88;4967841;28;20150;-57
2023/03/29 06:49:35;;;;;;;0.45;0.45;;;;;;;4.60;37.67;97378.91;4996154;28;20418;-59
2023/03/29 06:52:02;;;;;;;0.40;0.40;;;;;;;4.63;37.10;97379.06;4967423;28;20463;-58
2023/03/29 06:54:28;;;;;;;0.50;0.50;;;;;;;4.46;37.78;97356.31;4965088;28;20165;-57
2023/03/29 06:56:56;;;;;;;0.50;0.50;;;;;;;4.60;37.11;97379.72;4977682;28;20132;-58
2023/03/29 06:59:22;;;;;;;0.50;0.50;;;;;;;4.61;37.24;97386.03;4984508;28;20076;-58
2023/03/29 07:01:51;;;;;;;0.43;0.43;;;;;;;4.50;37.33;97380.03;4977432;28;20085;-60
2023/03/29 07:04:18;;;;;;;0.40;0.40;;;;;;;4.83;37.37;97393.25;4972611;28;20065;-57
2023/03/29 07:06:50;;;;;;;0.50;0.50;;;;;;;5.01;37.67;97398.38;4966023;28;20047;-59
2023/03/29 07:09:18;;;;;;;0.50;0.50;;;;;;;4.98;36.96;97376.28;4967832;28;20109;-58
2023/03/29 07:11:45;;;;;;;0.50;0.50;;;;;;;5.28;36.86;97387.00;4965826;28;20582;-58
2023/03/29 07:14:12;;;;;;;0.50;0.50;;;;;;;5.41;36.92;97407.16;4979846;28;20066;-61
2023/03/29 07:16:38;;;;;;;0.50;0.50;;;;;;;5.39;36.36;97409.47;4983094;28;20138;-57
2023/03/29 07:19:07;;;;;;;0.50;0.50;;;;;;;4.60;36.29;97302.09;4980144;28;20509;-58
2023/03/29 07:21:34;;;;;;;0.40;0.40;;;;;;;5.13;36.17;97416.94;4984854;28;20058;-60
2023/03/29 07:24:05;;;;;;;0.50;0.50;;;;;;;5.14;37.01;97404.84;4982597;28;20086;-57
2023/03/29 07:26:32;;;;;;;0.50;0.50;;;;;;;5.27;36.31;97420.31;4982660;28;20054;-58
2023/03/29 07:28:59;;;;;;;0.50;0.50;;;;;;;4.65;36.45;97310.97;4984343;28;20129;-59
2023/03/29 07:31:28;;;;;;;0.43;0.43;;;;;;;4.93;36.71;97311.41;4970377;28;20059;-57
2023/03/29 07:33:55;;;;;;;0.50;0.50;;;;;;;3.32;35.55;97069.34;4964777;28;20070;-60
2023/03/29 07:36:21;;;;;;;0.50;0.50;;;;;;;5.17;34.90;97393.22;4975249;28;20161;-58
2023/03/29 07:38:48;;;;;;;0.40;0.40;;;;;;;4.99;35.87;97375.97;4984135;28;20281;-57
2023/03/29 07:41:15;;;;;;;0.50;0.50;;;;;;;3.97;35.99;97173.19;4972326;28;20117;-57
2023/03/29 07:43:42;;;;;;;0.50;0.50;;;;;;;5.43;36.93;97419.47;4965227;28;20113;-59
2023/03/29 07:46:10;;;;;;;0.50;0.50;;;;;;;5.67;36.20;97418.88;4964025;28;20105;-57
2023/03/29 07:48:37;;;;;;;0.47;0.47;;;;;;;5.68;35.86;97415.00;4965144;28;20130;-60
2023/03/29 07:51:04;;;;;;;0.50;0.50;;;;;;;5.64;35.79;97425.03;4965748;28;20105;-56
2023/03/29 07:53:32;;;;;;;0.50;0.50;;;;;;;5.40;35.63;97380.84;4968425;28;20055;-56
2023/03/29 07:55:59;;;;;;;0.40;0.40;;;;;;;5.77;35.37;97421.28;4968119;28;20050;-58
2023/03/29 07:58:26;;;;;;;0.50;0.50;;;;;;;5.64;34.58;97491.00;4982635;28;20051;-60
2023/03/29 08:00:52;;;;;;;0.40;0.40;;;;;;;5.77;35.37;97424.81;4968264;28;20058;-59
2023/03/29 08:03:19;;;;;;;0.50;0.50;;;;;;;5.90;35.86;97406.50;4968930;28;20145;-58
2023/03/29 08:05:46;;;;;;;0.50;0.50;;;;;;;5.88;35.62;97403.31;4968150;28;20077;-60
2023/03/29 08:08:13;;;;;;;0.50;0.50;;;;;;;5.54;36.03;97326.50;4968461;28;20105;-58
2023/03/29 08:10:41;;;;;;;0.60;0.60;;;;;;;6.00;34.97;97395.16;4968317;28;20055;-58
2023/03/29 08:13:09;;;;;;;0.50;0.50;;;;;;;5.43;35.49;97264.81;4968725;28;20055;-58
2023/03/29 08:15:37;;;;;;;0.50;0.50;;;;;;;6.34;35.05;97422.44;4968021;28;20051;-57
2023/03/29 08:18:06;;;;;;;0.55;0.55;;;;;;;6.35;34.94;97424.06;4968416;28;20109;-59
2023/03/29 08:20:33;;;;;;;0.60;0.60;;;;;;;6.45;35.24;97412.63;4982378;28;20086;-57
2023/03/29 08:23:00;;;;;;;0.55;0.55;;;;;;;6.29;36.00;97380.56;4968507;28;20051;-59
2023/03/29 08:25:26;;;;;;;0.50;0.50;;;;;;;6.18;36.18;97330.63;4982964;28;20568;-59
2023/03/29 08:27:53;;;;;;;0.50;0.50;;;;;;;6.79;35.80;97409.63;4968644;28;20538;-60
2023/03/29 08:30:20;;;;;;;0.60;0.60;;;;;;;6.71;36.14;97360.97;4982644;28;20572;-59
2023/03/29 08:32:46;;;;;;;0.60;0.60;;;;;;;7.38;36.13;97407.44;4967968;28;20138;-60
2023/03/29 08:35:17;;;;;;;0.60;0.60;;;;;;;7.30;35.56;97406.38;4982636;28;20501;-60
2023/03/29 08:37:43;;;;;;;0.60;0.60;;;;;;;7.53;36.08;97424.13;4968118;28;20050;-59
2023/03/29 08:40:17;;;;;;;0.57;0.57;;;;;;;7.50;35.07;97400.00;4982717;28;20066;-57
2023/03/29 08:43:07;;;;;;;0.60;0.60;;;;;;;7.22;36.14;97384.44;4967768;28;20342;-58
2023/03/29 08:45:48;;;;;;;0.60;0.60;;;;;;;7.57;35.61;97403.00;4968242;28;20117;-58
2023/03/29 08:48:27;;;;;;;0.60;0.60;;;;;;;7.25;35.39;97417.63;4966634;28;20061;-59
2023/03/29 08:51:17;;;;;;;0.60;0.60;;;;;;;7.24;36.06;97407.72;4967478;28;20070;-58
2023/03/29 08:54:19;;;;;;;0.50;0.50;;;;;;;7.17;35.29;97395.66;4979396;28;20101;-59
2023/03/29 08:56:48;;;;;;;0.60;0.60;;;;;;;7.24;35.17;97382.16;4979970;28;20116;-60
2023/03/29 08:59:23;;;;;;;0.52;0.52;;;;;;;7.07;35.58;97390.56;4985649;28;20057;-59
2023/03/29 09:01:54;;;;;;;0.60;0.60;;;;;;;6.52;35.78;97368.91;4986864;28;20116;-59
2023/03/29 09:04:28;;;;;;;0.55;0.55;;;;;;;6.05;34.21;97370.22;4986151;28;20137;-57
2023/03/29 09:06:55;;;;;;;0.50;0.50;;;;;;;6.24;34.62;97406.34;4983841;28;20092;-60
2023/03/29 09:09:27;;;;;;;0.50;0.50;;;;;;;6.07;34.98;97409.16;4983810;28;20050;-58
2023/03/29 09:12:07;;;;;;;0.50;0.50;;;;;;;6.16;35.34;97409.94;4985338;28;20054;-59
2023/03/29 09:15:05;;;;;;;0.60;0.60;;;;;;;6.23;35.71;97390.94;4987105;28;20051;-59
2023/03/29 09:18:05;;;;;;;0.50;0.50;;;;;;;6.35;36.34;97413.06;4985758;28;20062;-58
2023/03/29 09:20:37;;;;;;;0.50;0.50;;;;;;;6.40;35.65;97388.09;4986879;28;20058;-59
2023/03/29 09:23:41;;;;;;;0.50;0.50;;;;;;;6.64;35.51;97415.75;4986540;28;20124;-59
2023/03/29 09:26:39;;;;;;;0.50;0.50;;;;;;;6.58;35.39;97419.84;4985024;28;20059;-58
2023/03/29 09:29:15;;;;;;;0.50;0.50;;;;;;;6.67;36.34;97406.81;4983565;28;20505;-60
2023/03/29 09:31:43;;;;;;;0.50;0.50;;;;;;;6.60;35.11;97406.56;4985427;28;20607;-59
2023/03/29 09:34:20;;;;;;;0.60;0.60;;;;;;;6.78;34.42;97387.94;4984811;28;20133;-60
2023/03/29 09:36:57;;;;;;;0.50;0.50;;;;;;;6.63;33.51;97397.63;4986681;28;20121;-61
2023/03/29 09:39:27;;;;;;;0.50;0.50;;;;;;;6.74;34.37;97382.31;4986808;28;20137;-59
2023/03/29 09:41:59;;;;;;;0.50;0.50;;;;;;;6.77;33.83;97403.66;4984900;28;20145;-59
2023/03/29 09:44:31;;;;;;;0.60;0.60;;;;;;;7.06;33.61;97392.53;4986454;28;20054;-59
2023/03/29 09:47:07;;;;;;;0.50;0.50;;;;;;;7.59;34.03;97392.44;4986265;28;20050;-58
2023/03/29 09:49:39;;;;;;;0.52;0.52;;;;;;;7.76;32.65;97404.41;4986194;28;20112;-60
2023/03/29 09:52:11;;;;;;;0.65;0.65;;;;;;;7.87;33.75;97416.59;4985920;28;20517;-59
2023/03/29 09:54:38;;;;;;;0.60;0.60;;;;;;;7.78;33.81;97385.56;4986275;28;20050;-59
2023/03/29 09:57:08;;;;;;;0.60;0.60;;;;;;;7.50;31.62;97408.28;4969979;28;20058;-59
2023/03/29 09:59:35;;;;;;;0.60;0.60;;;;;;;6.98;32.34;97368.66;5005366;28;20059;-59
2023/03/29 10:02:08;;;;;;;0.50;0.50;;;;;;;7.15;31.94;97437.34;5003923;28;20054;-59
2023/03/29 10:04:35;;;;;;;0.60;0.60;;;;;;;6.50;31.72;97277.63;5004815;28;20520;-59
2023/03/29 10:07:03;;;;;;;0.50;0.50;;;;;;;6.26;32.05;97217.00;5003517;28;20056;-59
2023/03/29 10:09:31;;;;;;;0.60;0.60;;;;;;;7.19;31.78;97385.13;5004175;28;20096;-59
2023/03/29 10:12:49;;;;;;;0.57;0.57;;;;;;;7.16;33.04;97389.34;5005357;28;20057;-59
2023/03/29 10:15:16;;;;;;;0.60;0.60;;;;;;;7.05;33.64;97374.38;4991499;28;20139;-59
2023/03/29 10:18:09;;;;;;;0.50;0.50;;;;;;;7.32;33.79;97398.56;5003239;28;20129;-59
2023/03/29 10:20:38;;;;;;;0.50;0.50;;;;;;;7.36;33.52;97383.00;5004183;28;20391;-60
2023/03/29 10:23:07;;;;;;;0.60;0.60;;;;;;;7.16;32.71;97383.84;5004771;28;20898;-58
2023/03/29 10:25:40;;;;;;;0.60;0.60;;;;;;;7.46;33.00;97395.53;5004340;28;20729;-58
2023/03/29 10:28:16;;;;;;;0.60;0.60;;;;;;;7.61;31.72;97368.09;5004706;28;20112;-59
2023/03/29 10:30:46;;;;;;;0.60;0.60;;;;;;;7.32;32.81;97359.19;5004616;28;20054;-59
2023/03/29 10:33:19;;;;;;;0.63;0.63;;;;;;;7.67;31.95;97361.19;5005489;28;20081;-60
2023/03/29 10:35:47;;;;;;;0.60;0.60;;;;;;;8.05;32.39;97374.63;5002363;28;20077;-59
2023/03/29 10:38:21;;;;;;;0.52;0.52;;;;;;;7.87;31.78;97369.72;5002975;28;20057;-60
2023/03/29 10:40:48;;;;;;;;;;;;;;;7.85;32.49;97378.34;5003355;28;20089;-59
2023/03/29 10:43:20;;;;;;;0.50;0.50;;;;;;;7.46;32.47;97376.22;5002800;28;19925;-60
2023/03/29 10:45:50;;;;;;;0.60;0.60;;;;;;;7.56;32.58;97373.81;5002867;28;20045;-60
2023/03/29 10:48:18;;;;;;;0.60;0.60;;;;;;;7.63;31.38;97379.56;5003093;28;20135;-60
2023/03/29 10:50:51;;;;;;;0.60;0.60;;;;;;;7.73;31.09;97381.88;5003802;28;20064;-60
2023/03/29 10:53:25;;;;;;;0.60;0.60;;;;;;;7.87;32.01;97366.97;5004476;28;20057;-60
2023/03/29 10:56:09;;;;;;;0.60;0.60;;;;;;;8.16;31.37;97369.44;5005101;28;20069;-59
2023/03/29 10:58:39;;;;;;;0.60;0.60;;;;;;;8.23;30.77;97361.44;5004104;28;20054;-60
2023/03/29 11:01:16;;;;;;;0.63;0.63;;;;;;;6.16;31.57;97137.69;5002862;28;20081;-60
2023/03/29 11:04:15;;;;;;;0.70;0.70;;;;;;;8.20;30.98;97351.06;5002957;28;20072;-59
2023/03/29 11:07:00;;;;;;;0.60;0.60;;;;;;;8.66;31.28;97336.72;5004585;28;20425;-59
2023/03/29 11:09:56;;;;;;;0.60;0.60;;;;;;;8.79;30.77;97330.78;5004239;28;20114;-59
2023/03/29 11:12:29;;;;;;;0.63;0.63;;;;;;;8.64;30.33;97286.56;5004596;28;20137;-59
2023/03/29 11:15:27;;;;;;;0.70;0.70;;;;;;;8.85;30.08;97328.59;5003937;28;20068;-58
2023/03/29 11:18:32;;;;;;;0.70;0.70;;;;;;;8.95;30.99;97330.81;5003948;28;20115;-59
2023/03/29 11:21:30;;;;;;;0.63;0.63;;;;;;;8.46;29.58;97316.41;4976626;28;20111;-58
2023/03/29 11:24:16;;;;;;;0.63;0.63;;;;;;;8.59;30.64;97330.97;4983386;28;20070;-58
2023/03/29 11:27:04;;;;;;;0.60;0.60;;;;;;;6.48;30.15;96933.22;4988872;28;20133;-58
2023/03/29 11:29:51;;;;;;;0.70;0.70;;;;;;;6.18;30.08;96885.94;4994988;28;20133;-57
2023/03/29 11:32:46;;;;;;;0.60;0.60;;;;;;;8.99;30.03;97318.72;4997663;28;20472;-57
2023/03/29 11:35:33;;;;;;;0.70;0.70;;;;;;;8.88;30.60;97309.31;4985823;28;20054;-60
2023/03/29 11:38:21;;;;;;;0.80;0.80;;;;;;;8.69;30.61;97324.97;5002823;28;20050;-60
2023/03/29 11:41:07;;;;;;;0.60;0.60;;;;;;;8.81;31.18;97327.66;5000655;28;20062;-60
2023/03/29 11:43:41;;;;;;;0.70;0.70;;;;;;;8.97;30.78;97315.53;4995144;28;20058;-61
2023/03/29 11:46:19;;;;;;;0.70;0.70;;;;;;;9.12;30.50;97322.22;4998955;28;20054;-57
2023/03/29 11:48:55;;;;;;;0.70;0.70;;;;;;;9.27;29.95;97324.22;4983280;28;20051;-57
2023/03/29 11:51:27;;;;;;;0.70;0.70;;;;;;;8.27;30.26;97274.03;4993811;28;20563;-61
2023/03/29 11:54:02;;;;;;;0.63;0.63;;;;;;;7.84;30.80;97224.25;5002561;28;20057;-61
2023/03/29 11:56:41;;;;;;;0.60;0.60;;;;;;;7.43;30.64;97178.47;4988587;28;20061;-60
2023/03/29 11:59:34;;;;;;;0.60;0.60;;;;;;;8.22;30.95;97321.19;4986328;28;20112;-62
2023/03/29 12:02:06;;;;;;;0.70;0.70;;;;;;;8.15;31.01;97282.31;4995368;28;20053;-59
2023/03/29 12:04:40;;;;;;;0.65;0.65;;;;;;;8.04;31.37;97297.75;4994372;28;20066;-56
2023/03/29 12:07:47;;;;;;;0.60;0.60;;;;;;;8.43;30.62;97339.19;4986282;28;20517;-58